Time;durP1;ratioP1;P1;durP2;ratioP2;P2;SDS_P1;SDS_P2;PMS_P1;PMS_P2;Temp;Humidity;BMP_temperature;BMP_pressure;BME280_temperature;BME280_humidity;BME280_pressure;Samples;Min_cycle;Max_cycle;Signal;HPM_P1;HPM_P2
2022/06/29 00:01:04;;;;;;;0.20;0.17;;;24.00;49.50;;;;;;6140438;28;20157;-43
2022/06/29 00:04:05;;;;;;;0.68;0.30;;;24.00;49.60;;;;;;6144813;28;20046;-49
2022/06/29 00:07:07;;;;;;;0.30;0.20;;;24.00;49.60;;;;;;6142380;28;20042;-45
2022/06/29 00:10:10;;;;;;;0.15;0.05;;;24.10;49.60;;;;;;6140804;28;20040;-45
2022/06/29 00:13:12;;;;;;;0.52;0.20;;;24.00;49.60;;;;;;6147013;28;20155;-47
2022/06/29 00:16:13;;;;;;;0.50;0.20;;;24.10;49.70;;;;;;6148744;28;20034;-50
2022/06/29 00:19:15;;;;;;;0.52;0.20;;;24.00;49.70;;;;;;6142245;28;20102;-46
2022/06/29 00:22:16;;;;;;;0.47;0.10;;;24.00;49.70;;;;;;6149921;28;20035;-48
2022/06/29 00:25:19;;;;;;;0.40;0.30;;;24.00;49.80;;;;;;6143954;28;20057;-49
2022/06/29 00:28:21;;;;;;;0.25;0.10;;;24.00;49.80;;;;;;6140564;28;20046;-46
2022/06/29 00:31:22;;;;;;;0.30;0.10;;;24.00;49.80;;;;;;6145682;28;20078;-48
2022/06/29 00:34:24;;;;;;;0.80;0.22;;;23.90;49.80;;;;;;6144655;28;20069;-46
2022/06/29 00:37:25;;;;;;;0.22;0.10;;;24.00;49.90;;;;;;6147812;28;20105;-45
2022/06/29 00:40:28;;;;;;;0.40;0.20;;;24.00;50.00;;;;;;6153824;28;20050;-48
2022/06/29 00:43:29;;;;;;;0.10;0.00;;;23.80;49.90;;;;;;6147207;28;20161;-47
2022/06/29 00:46:31;;;;;;;0.45;0.20;;;23.90;50.10;;;;;;6131689;28;21051;-44
2022/06/29 00:49:34;;;;;;;0.10;0.10;;;23.90;50.20;;;;;;6134018;28;20043;-46
2022/06/29 00:52:40;;;;;;;0.13;0.10;;;24.00;50.30;;;;;;6114573;28;20316;-46
2022/06/29 00:55:47;;;;;;;0.57;0.13;;;23.90;50.20;;;;;;6130317;28;20767;-46
2022/06/29 00:58:51;;;;;;;0.50;0.20;;;23.90;50.20;;;;;;6134722;28;20161;-42
2022/06/29 01:01:52;;;;;;;0.57;0.20;;;23.90;50.30;;;;;;6126552;28;20038;-45
2022/06/29 01:04:54;;;;;;;0.20;0.10;;;23.90;50.30;;;;;;6127948;28;20137;-48
2022/06/29 01:07:57;;;;;;;0.30;0.10;;;23.90;50.30;;;;;;6130966;28;20224;-48
2022/06/29 01:10:59;;;;;;;0.10;0.10;;;23.80;50.30;;;;;;6126964;28;20141;-49
2022/06/29 01:14:01;;;;;;;0.57;0.10;;;23.90;50.40;;;;;;6133955;28;20253;-48
2022/06/29 01:17:04;;;;;;;0.45;0.20;;;23.90;50.50;;;;;;6111924;28;20116;-47
2022/06/29 01:20:06;;;;;;;0.20;0.10;;;23.90;50.50;;;;;;6133029;28;20291;-49
2022/06/29 01:23:08;;;;;;;0.30;0.20;;;23.90;50.60;;;;;;6126666;28;20338;-43
2022/06/29 01:26:11;;;;;;;0.20;0.10;;;23.90;50.70;;;;;;6129557;28;20152;-44
2022/06/29 01:29:14;;;;;;;0.10;0.10;;;23.90;50.80;;;;;;6131446;28;20193;-45
2022/06/29 01:32:15;;;;;;;0.22;0.10;;;23.90;50.90;;;;;;6130083;28;20050;-47
2022/06/29 01:35:18;;;;;;;0.25;0.15;;;23.90;51.00;;;;;;6129133;28;20527;-48
2022/06/29 01:38:20;;;;;;;0.20;0.10;;;23.90;51.10;;;;;;6131774;28;20072;-49
2022/06/29 01:41:22;;;;;;;0.10;0.10;;;23.90;51.20;;;;;;6128782;28;20050;-44
2022/06/29 01:44:24;;;;;;;0.13;0.10;;;23.90;51.30;;;;;;6132262;28;20475;-47
2022/06/29 01:47:25;;;;;;;0.43;0.10;;;23.80;51.40;;;;;;6131647;28;20868;-46
2022/06/29 01:50:27;;;;;;;0.10;0.00;;;23.80;51.40;;;;;;6124981;28;20098;-46
2022/06/29 01:53:29;;;;;;;0.28;0.20;;;23.80;51.40;;;;;;6132949;28;20054;-47
2022/06/29 01:56:31;;;;;;;0.15;0.10;;;23.90;51.50;;;;;;6131152;28;20696;-47
2022/06/29 01:59:33;;;;;;;0.20;0.10;;;23.90;51.60;;;;;;6129223;28;20053;-43
2022/06/29 02:02:34;;;;;;;1.10;0.30;;;23.90;51.70;;;;;;6129638;28;20177;-47
2022/06/29 02:05:36;;;;;;;0.30;0.10;;;23.80;51.60;;;;;;6129974;28;20326;-45
2022/06/29 02:08:38;;;;;;;0.32;0.10;;;23.80;51.60;;;;;;6126720;28;20212;-46
2022/06/29 02:11:40;;;;;;;0.30;0.10;;;23.90;51.70;;;;;;6136945;28;20046;-44
2022/06/29 02:14:42;;;;;;;0.20;0.17;;;23.80;51.70;;;;;;6123912;28;20846;-48
2022/06/29 02:17:44;;;;;;;0.60;0.20;;;23.90;51.70;;;;;;6130368;28;20164;-47
2022/06/29 02:20:45;;;;;;;0.17;0.10;;;23.80;51.80;;;;;;6127585;28;20073;-48
2022/06/29 02:23:48;;;;;;;0.10;0.10;;;23.80;51.90;;;;;;6125954;28;20095;-43
2022/06/29 02:26:50;;;;;;;0.28;0.10;;;23.80;51.90;;;;;;6128625;28;20253;-47
2022/06/29 02:29:51;;;;;;;0.60;0.20;;;23.90;52.00;;;;;;6124479;28;20924;-43
2022/06/29 02:36:09;;;;;;;0.10;0.10;;;23.70;52.00;;;;;;6132165;28;20161;-49
2022/06/29 02:39:11;;;;;;;0.22;0.10;;;23.70;52.00;;;;;;6134901;28;20054;-45
2022/06/29 02:42:14;;;;;;;0.57;0.20;;;23.70;52.00;;;;;;6131969;28;20492;-45
2022/06/29 02:45:16;;;;;;;0.40;0.20;;;23.80;52.10;;;;;;6128256;28;20085;-44
2022/06/29 02:48:23;;;;;;;0.22;0.10;;;23.80;52.10;;;;;;6130200;28;20080;-46
2022/06/29 02:51:25;;;;;;;0.20;0.20;;;23.80;52.10;;;;;;6127037;28;20410;-45
2022/06/29 02:54:27;;;;;;;0.40;0.20;;;23.80;52.10;;;;;;6129305;28;20157;-47
2022/06/29 02:57:29;;;;;;;1.35;0.30;;;23.80;52.10;;;;;;6131576;28;20344;-43
2022/06/29 03:00:31;;;;;;;0.13;0.13;;;23.80;52.10;;;;;;6131430;28;20334;-49
2022/06/29 03:03:32;;;;;;;0.20;0.20;;;23.90;52.20;;;;;;6110291;28;20286;-46
2022/06/29 03:06:34;;;;;;;0.20;0.17;;;23.90;52.80;;;;;;6137510;28;20109;-47
2022/06/29 03:09:36;;;;;;;0.20;0.10;;;23.80;52.10;;;;;;6135596;28;20054;-47
2022/06/29 03:12:38;;;;;;;0.13;0.10;;;23.80;52.10;;;;;;6129793;28;20734;-45
2022/06/29 03:15:39;;;;;;;0.65;0.13;;;23.80;52.20;;;;;;6130083;28;20090;-44
2022/06/29 03:18:41;;;;;;;0.20;0.13;;;23.80;52.20;;;;;;6130693;28;20046;-47
2022/06/29 03:21:42;;;;;;;0.20;0.10;;;23.80;52.20;;;;;;6134207;28;20399;-48
2022/06/29 03:24:45;;;;;;;0.30;0.20;;;23.80;52.20;;;;;;6130951;28;21055;-45
2022/06/29 03:27:46;;;;;;;0.22;0.20;;;23.80;52.20;;;;;;6131177;28;20398;-45
2022/06/29 03:30:48;;;;;;;0.30;0.25;;;23.70;52.80;;;;;;6134816;28;20574;-47
2022/06/29 03:33:49;;;;;;;0.10;0.10;;;23.80;52.20;;;;;;6129848;28;20342;-48
2022/06/29 03:36:51;;;;;;;0.28;0.10;;;23.80;52.20;;;;;;6114302;28;20054;-47
2022/06/29 03:39:53;;;;;;;0.30;0.10;;;23.90;52.40;;;;;;6131435;28;20035;-47
2022/06/29 03:42:55;;;;;;;0.10;0.10;;;23.70;52.30;;;;;;6130970;28;20074;-45
2022/06/29 03:45:57;;;;;;;0.10;0.10;;;23.80;52.40;;;;;;6130391;28;20570;-48
2022/06/29 03:48:58;;;;;;;0.25;0.20;;;23.80;52.30;;;;;;6133180;28;20358;-45
2022/06/29 03:52:00;;;;;;;0.38;0.10;;;23.90;52.40;;;;;;6133510;28;20074;-47
2022/06/29 03:55:03;;;;;;;0.20;0.20;;;23.80;52.40;;;;;;6129021;28;20078;-46
2022/06/29 03:58:04;;;;;;;0.20;0.10;;;23.90;52.50;;;;;;6128644;28;20846;-45
2022/06/29 04:01:06;;;;;;;0.50;0.20;;;23.80;52.90;;;;;;6127861;28;20034;-47
2022/06/29 04:04:07;;;;;;;0.20;0.20;;;23.80;52.40;;;;;;6127670;28;20156;-45
2022/06/29 04:07:09;;;;;;;0.30;0.10;;;23.90;52.60;;;;;;6125460;28;20430;-43
2022/06/29 04:10:11;;;;;;;0.10;0.10;;;23.80;52.60;;;;;;6128631;28;20750;-45
2022/06/29 04:13:13;;;;;;;0.22;0.10;;;23.80;52.60;;;;;;6132861;28;20109;-44
2022/06/29 04:16:15;;;;;;;0.30;0.10;;;24.00;52.70;;;;;;6132820;28;20988;-44
2022/06/29 04:19:17;;;;;;;0.30;0.20;;;23.80;52.70;;;;;;6127343;28;20060;-47
2022/06/29 04:22:19;;;;;;;0.10;0.10;;;23.70;52.60;;;;;;6111389;28;20154;-48
2022/06/29 04:25:21;;;;;;;0.20;0.10;;;23.80;52.70;;;;;;6107536;28;20513;-47
2022/06/29 04:28:22;;;;;;;0.20;0.10;;;23.80;52.80;;;;;;6125984;28;20080;-46
2022/06/29 04:31:24;;;;;;;0.38;0.10;;;23.80;52.90;;;;;;6122119;28;20050;-48
2022/06/29 04:34:26;;;;;;;0.13;0.13;;;23.90;52.90;;;;;;6125801;28;20050;-48
2022/06/29 04:37:27;;;;;;;0.28;0.20;;;23.70;52.90;;;;;;6133181;28;21010;-47
2022/06/29 04:40:29;;;;;;;0.20;0.10;;;23.80;52.90;;;;;;6130699;28;20050;-50
2022/06/29 04:43:31;;;;;;;0.30;0.10;;;23.80;53.00;;;;;;6134343;28;20456;-45
2022/06/29 04:46:32;;;;;;;0.10;0.10;;;23.80;53.00;;;;;;6133223;28;20038;-49
2022/06/29 04:49:34;;;;;;;0.13;0.10;;;23.90;53.20;;;;;;6129252;28;20177;-43
2022/06/29 04:52:36;;;;;;;0.32;0.20;;;23.80;53.10;;;;;;6125753;28;20050;-48
2022/06/29 04:55:38;;;;;;;0.10;0.10;;;23.80;53.10;;;;;;6122976;28;20334;-48
2022/06/29 04:58:40;;;;;;;0.45;0.10;;;23.70;53.10;;;;;;6117273;28;20062;-45
2022/06/29 05:01:41;;;;;;;0.10;0.10;;;23.70;53.20;;;;;;6120783;28;20792;-48
2022/06/29 05:04:43;;;;;;;0.30;0.13;;;23.80;53.30;;;;;;6125334;28;20289;-44
2022/06/29 05:07:45;;;;;;;0.30;0.20;;;23.80;53.30;;;;;;6116436;28;20414;-48
2022/06/29 05:10:47;;;;;;;0.32;0.20;;;23.80;53.90;;;;;;6126287;28;20126;-46
2022/06/29 05:13:49;;;;;;;0.15;0.10;;;23.80;53.40;;;;;;6119850;28;20443;-43
2022/06/29 05:16:51;;;;;;;0.30;0.10;;;23.80;53.50;;;;;;6126386;28;20181;-44
2022/06/29 05:19:53;;;;;;;0.10;0.10;;;23.80;53.50;;;;;;6126561;28;20289;-48
2022/06/29 05:22:54;;;;;;;0.10;0.10;;;23.80;53.60;;;;;;6125107;28;20471;-47
2022/06/29 05:25:56;;;;;;;0.25;0.10;;;23.70;53.60;;;;;;6125131;28;20053;-47
2022/06/29 05:28:58;;;;;;;0.28;0.10;;;23.80;53.70;;;;;;6125024;28;20831;-50
2022/06/29 05:31:59;;;;;;;0.10;0.10;;;23.80;53.70;;;;;;6120603;28;20288;-46
2022/06/29 05:35:01;;;;;;;0.40;0.10;;;23.80;53.70;;;;;;6114216;28;20069;-49
2022/06/29 05:38:03;;;;;;;0.28;0.10;;;23.80;53.80;;;;;;6101219;28;20043;-46
2022/06/29 05:41:05;;;;;;;0.10;0.10;;;23.80;53.80;;;;;;6084238;28;20046;-46
2022/06/29 05:44:08;;;;;;;0.10;0.10;;;23.80;53.70;;;;;;6099122;28;22124;-45
2022/06/29 05:47:09;;;;;;;0.10;0.03;;;23.80;53.70;;;;;;6109838;28;20049;-47
2022/06/29 05:50:13;;;;;;;0.20;0.10;;;23.80;53.70;;;;;;6114176;28;20053;-47
2022/06/29 05:53:16;;;;;;;0.45;0.10;;;23.70;53.30;;;;;;6118543;28;20129;-46
2022/06/29 05:56:18;;;;;;;0.20;0.13;;;23.80;53.70;;;;;;6114758;28;20061;-50
2022/06/29 05:59:19;;;;;;;0.45;0.10;;;23.80;53.70;;;;;;6115790;28;20045;-50
2022/06/29 06:02:21;;;;;;;0.35;0.13;;;23.80;53.70;;;;;;6118343;28;20172;-45
2022/06/29 06:05:22;;;;;;;1.10;0.20;;;23.80;53.80;;;;;;6114753;28;22507;-46
2022/06/29 06:08:24;;;;;;;1.17;0.10;;;23.80;53.80;;;;;;6112952;28;20092;-47
2022/06/29 06:11:26;;;;;;;0.40;0.10;;;23.80;53.80;;;;;;6109814;28;20051;-46
2022/06/29 06:14:28;;;;;;;0.50;0.10;;;23.80;53.80;;;;;;6104146;28;20054;-47
2022/06/29 06:17:30;;;;;;;0.30;0.20;;;23.80;53.80;;;;;;6105462;28;20141;-48
2022/06/29 06:20:36;;;;;;;1.30;0.30;;;23.70;53.80;;;;;;6098665;28;20081;-46
2022/06/29 06:23:38;;;;;;;0.30;0.20;;;23.80;54.00;;;;;;6102041;28;20968;-47
2022/06/29 06:26:40;;;;;;;0.52;0.20;;;23.80;54.00;;;;;;6101546;28;20182;-48
2022/06/29 06:29:42;;;;;;;1.55;0.30;;;23.80;54.00;;;;;;6103515;28;20046;-47
2022/06/29 06:32:44;;;;;;;0.28;0.20;;;23.90;54.20;;;;;;6076993;28;20038;-47
2022/06/29 06:35:46;;;;;;;1.92;0.30;;;23.80;54.10;;;;;;6099490;28;20080;-49
2022/06/29 06:38:47;;;;;;;0.85;0.20;;;23.80;54.10;;;;;;6083274;28;20120;-49
2022/06/29 06:41:50;;;;;;;0.15;0.15;;;23.80;54.90;;;;;;6075263;28;20133;-50
2022/06/29 06:44:51;;;;;;;0.30;0.10;;;23.80;54.30;;;;;;6082351;28;21205;-44
2022/06/29 06:47:53;;;;;;;0.75;0.20;;;23.70;54.30;;;;;;6079404;28;20114;-46
2022/06/29 06:50:55;;;;;;;0.28;0.20;;;23.80;54.30;;;;;;6054683;28;20089;-47
2022/06/29 06:53:56;;;;;;;0.70;0.10;;;23.80;54.30;;;;;;6049904;28;20065;-48
2022/06/29 06:56:59;;;;;;;0.52;0.30;;;23.90;54.30;;;;;;6021499;28;20047;-46
2022/06/29 07:00:00;;;;;;;0.50;0.22;;;23.90;54.40;;;;;;6024156;28;20058;-48
2022/06/29 07:03:02;;;;;;;1.67;0.40;;;23.80;54.40;;;;;;6009893;28;20046;-49
2022/06/29 07:06:04;;;;;;;1.85;0.38;;;23.90;54.50;;;;;;5996319;28;20094;-51
2022/06/29 07:09:31;;;;;;;1.15;0.30;;;23.90;54.60;;;;;;5989901;28;21422;-52
2022/06/29 07:12:34;;;;;;;0.77;0.40;;;23.90;54.60;;;;;;5981176;28;21252;-50
2022/06/29 07:15:38;;;;;;;1.33;0.93;;;24.00;54.80;;;;;;5997260;28;20050;-49
2022/06/29 07:18:41;;;;;;;3.05;1.40;;;23.90;55.10;;;;;;5986068;28;20054;-52
2022/06/29 07:21:42;;;;;;;1.77;0.80;;;23.90;54.80;;;;;;5988458;28;20157;-49
2022/06/29 07:24:44;;;;;;;2.80;1.42;;;23.90;54.80;;;;;;6011166;28;20043;-46
2022/06/29 07:27:46;;;;;;;3.72;1.30;;;23.80;54.80;;;;;;5987591;28;20054;-45
2022/06/29 07:30:48;;;;;;;1.45;0.80;;;24.00;55.00;;;;;;5994755;28;20042;-49
2022/06/29 07:33:50;;;;;;;2.25;1.10;;;23.90;55.00;;;;;;5954662;28;20038;-46
2022/06/29 07:36:52;;;;;;;1.52;0.90;;;24.00;55.00;;;;;;5965121;28;20054;-46
2022/06/29 07:39:54;;;;;;;1.25;0.63;;;23.80;54.90;;;;;;5959943;28;20039;-50
2022/06/29 07:43:16;;;;;;;1.92;1.00;;;24.00;55.10;;;;;;5941343;28;22445;-45
2022/06/29 07:46:18;;;;;;;1.05;0.50;;;24.10;55.10;;;;;;5990619;28;20061;-46
2022/06/29 07:49:20;;;;;;;1.05;0.57;;;24.10;55.10;;;;;;5934447;28;20140;-49
2022/06/29 07:52:21;;;;;;;1.50;0.70;;;24.10;55.80;;;;;;5950319;28;20705;-47
2022/06/29 07:55:24;;;;;;;0.88;0.52;;;24.10;55.10;;;;;;5948836;28;20076;-49
2022/06/29 07:58:26;;;;;;;0.70;0.47;;;24.00;55.10;;;;;;5946762;28;20043;-48
2022/06/29 08:01:28;;;;;;;0.95;0.50;;;24.10;55.20;;;;;;5963972;28;21462;-46
2022/06/29 08:04:30;;;;;;;2.75;0.70;;;24.10;55.20;;;;;;5965812;28;20173;-48
2022/06/29 08:07:51;;;;;;;;;;;24.10;55.30;;;;;;5945785;28;20223;-47
2022/06/29 08:10:53;;;;;;;1.73;0.70;;;24.10;55.20;;;;;;5941408;28;22116;-48
2022/06/29 08:13:55;;;;;;;1.50;0.70;;;24.10;55.10;;;;;;5941023;28;20169;-46
2022/06/29 08:16:57;;;;;;;0.73;0.50;;;24.10;55.10;;;;;;5943657;28;20046;-45
2022/06/29 08:19:59;;;;;;;2.30;0.70;;;24.10;55.10;;;;;;5990651;28;20058;-46
2022/06/29 08:23:01;;;;;;;1.15;0.70;;;24.10;55.00;;;;;;5954468;28;20050;-48
2022/06/29 08:26:02;;;;;;;2.00;0.47;;;24.30;55.10;;;;;;5969738;28;20975;-45
2022/06/29 08:29:24;;;;;;;;;;;24.10;55.00;;;;;;5982640;28;20042;-50
2022/06/29 08:32:26;;;;;;;1.10;0.50;;;24.10;55.10;;;;;;6003401;28;21699;-46
2022/06/29 08:35:28;;;;;;;1.50;0.40;;;24.20;55.00;;;;;;5976727;28;22130;-50
2022/06/29 08:38:29;;;;;;;0.65;0.20;;;24.00;54.90;;;;;;5997264;28;20050;-51
2022/06/29 08:41:33;;;;;;;1.25;0.35;;;24.10;54.90;;;;;;5980826;28;20186;-48
2022/06/29 08:44:37;;;;;;;0.60;0.30;;;24.10;54.80;;;;;;5982529;28;20047;-50
2022/06/29 08:47:43;;;;;;;0.82;0.30;;;24.00;54.70;;;;;;5978291;28;21282;-49
2022/06/29 08:50:50;;;;;;;0.40;0.30;;;24.20;54.60;;;;;;5967261;28;20054;-47
2022/06/29 08:53:53;;;;;;;1.10;0.30;;;24.20;54.60;;;;;;5924736;28;20038;-49
2022/06/29 08:56:58;;;;;;;1.85;0.30;;;24.20;54.50;;;;;;5968883;28;20189;-49
2022/06/29 09:00:00;;;;;;;0.85;0.40;;;24.10;54.40;;;;;;5953387;28;20061;-48
2022/06/29 09:03:04;;;;;;;0.82;0.57;;;24.20;54.20;;;;;;5950670;28;22347;-45
2022/06/29 09:06:06;;;;;;;0.95;0.40;;;24.20;54.10;;;;;;5941479;28;21580;-48
2022/06/29 09:09:08;;;;;;;1.00;0.40;;;24.20;53.90;;;;;;5950555;28;20127;-47
2022/06/29 09:12:18;;;;;;;0.68;0.30;;;24.30;53.80;;;;;;5975186;28;20046;-49
2022/06/29 09:15:31;;;;;;;2.83;0.47;;;24.30;53.70;;;;;;5974455;28;20038;-45
2022/06/29 09:18:34;;;;;;;0.73;0.40;;;24.30;53.60;;;;;;5969474;28;20056;-51
2022/06/29 09:21:44;;;;;;;1.17;0.40;;;24.30;53.50;;;;;;5948462;28;20624;-46
2022/06/29 09:24:46;;;;;;;0.73;0.30;;;24.30;53.40;;;;;;5970592;28;20050;-50
2022/06/29 09:28:19;;;;;;;0.22;0.20;;;24.30;53.30;;;;;;5952591;28;21337;-50
2022/06/29 09:31:21;;;;;;;1.15;0.30;;;24.30;53.20;;;;;;5988564;28;20078;-51
2022/06/29 09:34:24;;;;;;;1.33;0.20;;;24.30;53.10;;;;;;5989423;28;20038;-45
2022/06/29 09:37:26;;;;;;;2.80;0.45;;;24.20;53.00;;;;;;5977329;28;20110;-46
2022/06/29 09:40:27;;;;;;;0.65;0.40;;;24.20;52.80;;;;;;5989752;28;20168;-49
2022/06/29 09:43:31;;;;;;;0.43;0.28;;;24.30;52.70;;;;;;5974690;28;20054;-45
2022/06/29 09:46:34;;;;;;;1.15;0.55;;;24.40;52.20;;;;;;5961437;28;20051;-50
2022/06/29 09:49:37;;;;;;;0.75;0.30;;;24.40;52.70;;;;;;5995405;28;20050;-49
2022/06/29 09:52:39;;;;;;;0.73;0.30;;;24.50;52.60;;;;;;5977060;28;20089;-46
2022/06/29 09:55:41;;;;;;;1.00;0.40;;;24.40;52.50;;;;;;5965420;28;21943;-46
2022/06/29 09:58:48;;;;;;;1.48;0.60;;;24.40;52.20;;;;;;5976414;28;20062;-45
2022/06/29 10:05:12;;;;;;;3.20;0.88;;;24.50;51.90;;;;;;5981520;28;20062;-47
2022/06/29 10:15:13;;;;;;;0.88;0.32;;;24.50;51.50;;;;;;5999864;28;22280;-46
2022/06/29 10:18:25;;;;;;;0.60;0.25;;;24.50;51.40;;;;;;6018139;28;20054;-44
2022/06/29 10:21:29;;;;;;;0.80;0.40;;;24.60;51.30;;;;;;6001617;28;23851;-44
2022/06/29 10:24:31;;;;;;;0.60;0.30;;;24.60;51.30;;;;;;5980997;28;20045;-45
2022/06/29 10:27:33;;;;;;;0.68;0.38;;;24.60;51.10;;;;;;6022469;28;20057;-44
2022/06/29 10:30:35;;;;;;;0.77;0.30;;;24.60;50.80;;;;;;6027700;28;20577;-45
2022/06/29 10:33:37;;;;;;;0.80;0.20;;;24.50;50.70;;;;;;6038263;28;20166;-44
2022/06/29 10:37:04;;;;;;;0.80;0.40;;;24.60;50.70;;;;;;6019786;28;20051;-50
2022/06/29 10:40:15;;;;;;;0.47;0.22;;;24.60;50.40;;;;;;6034184;28;20042;-44
2022/06/29 10:43:20;;;;;;;0.70;0.30;;;24.60;50.40;;;;;;6062828;28;20064;-44
2022/06/29 10:46:22;;;;;;;1.17;0.43;;;24.50;50.10;;;;;;6072956;28;20042;-45
2022/06/29 10:49:25;;;;;;;0.85;0.20;;;24.60;49.80;;;;;;6048326;28;20041;-46
2022/06/29 10:52:27;;;;;;;0.60;0.30;;;24.70;49.70;;;;;;6081317;28;20038;-44
2022/06/29 10:55:32;;;;;;;0.52;0.20;;;24.70;49.50;;;;;;6060953;28;20046;-44
2022/06/29 10:58:35;;;;;;;0.82;0.22;;;24.70;49.40;;;;;;6069956;28;20061;-44
2022/06/29 11:01:36;;;;;;;0.40;0.25;;;24.70;49.40;;;;;;6086681;28;20046;-46
2022/06/29 11:04:40;;;;;;;1.10;0.55;;;24.70;49.40;;;;;;6056133;28;20047;-44
2022/06/29 11:17:44;;;;;;;0.95;0.30;;;24.70;48.90;;;;;;6081397;28;20057;-47
2022/06/29 11:20:49;;;;;;;1.30;0.32;;;24.70;48.60;;;;;;6067092;28;20120;-44
2022/06/29 11:24:03;;;;;;;0.40;0.30;;;24.70;48.50;;;;;;6077044;28;20086;-49
2022/06/29 11:27:04;;;;;;;1.00;0.50;;;24.70;48.50;;;;;;6066464;28;22149;-45
2022/06/29 11:30:09;;;;;;;1.02;0.60;;;24.60;48.40;;;;;;6065804;28;20165;-46
2022/06/29 11:33:12;;;;;;;0.90;0.30;;;24.60;48.30;;;;;;6052220;28;20579;-45
2022/06/29 11:36:16;;;;;;;0.75;0.30;;;24.60;48.30;;;;;;6049415;28;21069;-44
2022/06/29 11:39:17;;;;;;;3.45;0.35;;;24.60;48.20;;;;;;6075759;28;20120;-44
2022/06/29 11:45:38;;;;;;;3.08;0.28;;;24.70;48.00;;;;;;6066278;28;20053;-46
2022/06/29 11:52:10;;;;;;;0.25;0.20;;;24.60;47.70;;;;;;6024416;28;20093;-44
2022/06/29 11:55:12;;;;;;;0.22;0.20;;;24.40;47.50;;;;;;6002686;28;20723;-43
2022/06/29 11:58:15;;;;;;;0.38;0.20;;;24.60;47.50;;;;;;6031858;28;21227;-45
2022/06/29 12:01:24;;;;;;;0.70;0.20;;;24.60;47.50;;;;;;6004290;28;20606;-46
2022/06/29 12:04:28;;;;;;;0.10;0.10;;;24.50;47.30;;;;;;5985641;28;20058;-43
2022/06/29 12:07:31;;;;;;;0.50;0.10;;;24.50;47.20;;;;;;5968376;28;20050;-44
2022/06/29 12:10:33;;;;;;;0.28;0.20;;;24.60;47.30;;;;;;5984219;28;20128;-45
2022/06/29 12:13:35;;;;;;;0.30;0.20;;;24.50;47.30;;;;;;5980624;28;20052;-44
2022/06/29 12:16:36;;;;;;;0.77;0.30;;;24.60;47.50;;;;;;5978241;28;20046;-44
2022/06/29 12:19:38;;;;;;;0.47;0.20;;;24.50;47.50;;;;;;5994732;28;20314;-44
2022/06/29 12:22:40;;;;;;;0.38;0.13;;;24.60;47.70;;;;;;5995924;28;20161;-45
2022/06/29 12:26:33;;;;;;;0.43;0.20;;;24.50;47.70;;;;;;5968524;28;20043;-43
2022/06/29 12:29:34;;;;;;;0.60;0.20;;;24.50;47.80;;;;;;5965740;28;20046;-47
2022/06/29 12:32:37;;;;;;;0.30;0.17;;;24.70;47.90;;;;;;5981674;28;20656;-43
2022/06/29 12:35:39;;;;;;;0.45;0.10;;;24.60;47.90;;;;;;5984898;28;20081;-44
2022/06/29 12:38:41;;;;;;;0.52;0.20;;;24.40;47.70;;;;;;5987263;28;21386;-43
2022/06/29 12:41:43;;;;;;;0.22;0.20;;;24.50;47.80;;;;;;5985994;28;20046;-47
2022/06/29 12:44:45;;;;;;;0.52;0.20;;;24.50;47.70;;;;;;5987076;28;21179;-44
2022/06/29 12:47:47;;;;;;;0.40;0.20;;;24.60;47.80;;;;;;5986574;28;20050;-47
2022/06/29 12:50:48;;;;;;;0.55;0.20;;;24.50;47.80;;;;;;5947718;28;20124;-47
2022/06/29 12:53:51;;;;;;;0.95;0.40;;;24.60;47.80;;;;;;5968774;28;20061;-44
2022/06/29 12:56:53;;;;;;;1.75;0.28;;;24.50;47.80;;;;;;5985467;28;21821;-44
2022/06/29 12:59:54;;;;;;;0.47;0.20;;;24.50;47.60;;;;;;5973705;28;20164;-46
2022/06/29 13:02:56;;;;;;;0.55;0.28;;;24.50;47.50;;;;;;5953088;28;20085;-49
2022/06/29 13:05:58;;;;;;;0.93;0.30;;;24.70;47.40;;;;;;5931397;28;21893;-43
2022/06/29 13:09:00;;;;;;;0.20;0.15;;;24.60;47.20;;;;;;5965938;28;20062;-45
2022/06/29 13:12:02;;;;;;;0.50;0.28;;;24.60;47.10;;;;;;5986428;28;20053;-46
2022/06/29 13:15:05;;;;;;;0.35;0.20;;;24.60;47.10;;;;;;5958939;28;20085;-45
2022/06/29 13:18:06;;;;;;;0.50;0.20;;;24.60;47.10;;;;;;5958805;28;20086;-47
2022/06/29 13:21:08;;;;;;;0.73;0.30;;;24.60;47.00;;;;;;5976830;28;20049;-45
2022/06/29 13:24:11;;;;;;;0.55;0.30;;;24.60;46.90;;;;;;5973104;28;20173;-43
2022/06/29 13:27:12;;;;;;;0.63;0.30;;;24.60;46.80;;;;;;5969985;28;20112;-43
2022/06/29 13:30:14;;;;;;;0.95;0.50;;;24.60;46.80;;;;;;5953336;28;20053;-43
2022/06/29 13:33:16;;;;;;;0.47;0.20;;;24.60;46.70;;;;;;5964766;28;21318;-43
2022/06/29 13:36:19;;;;;;;0.50;0.28;;;24.60;46.60;;;;;;5970793;28;20050;-43
2022/06/29 13:39:27;;;;;;;1.05;0.30;;;24.60;46.60;;;;;;5971566;28;20058;-44
2022/06/29 13:42:29;;;;;;;0.70;0.40;;;24.60;46.50;;;;;;5991673;28;20050;-43
2022/06/29 13:45:45;;;;;;;1.17;0.35;;;24.70;47.10;;;;;;5984889;28;20051;-43
2022/06/29 13:48:47;;;;;;;0.35;0.20;;;24.60;46.40;;;;;;5976355;28;20050;-43
2022/06/29 13:51:49;;;;;;;1.23;0.20;;;24.60;46.30;;;;;;5963370;28;20050;-43
2022/06/29 13:54:51;;;;;;;1.15;0.25;;;24.70;46.30;;;;;;5972886;28;20054;-44
2022/06/29 13:57:53;;;;;;;0.75;0.32;;;24.60;46.10;;;;;;6000635;28;20089;-46
2022/06/29 14:00:54;;;;;;;1.00;0.50;;;24.50;45.90;;;;;;5987419;28;20050;-44
2022/06/29 14:03:57;;;;;;;3.28;0.40;;;24.70;45.90;;;;;;5975625;28;22830;-43
2022/06/29 14:06:59;;;;;;;0.75;0.30;;;24.50;45.80;;;;;;5969547;28;20045;-45
2022/06/29 14:13:48;;;;;;;0.60;0.28;;;24.60;45.70;;;;;;5988059;28;20046;-43
2022/06/29 14:16:49;;;;;;;0.60;0.40;;;24.60;45.70;;;;;;5989583;28;21917;-47
2022/06/29 14:19:51;;;;;;;0.40;0.30;;;24.60;45.60;;;;;;5985464;28;20043;-46
2022/06/29 14:22:53;;;;;;;0.75;0.30;;;24.60;45.60;;;;;;5984517;28;22781;-43
2022/06/29 14:25:55;;;;;;;0.90;0.40;;;24.60;45.60;;;;;;5982880;28;20039;-44
2022/06/29 14:28:57;;;;;;;0.45;0.30;;;24.60;45.60;;;;;;5987754;28;20672;-43
2022/06/29 14:31:59;;;;;;;1.05;0.40;;;24.60;45.50;;;;;;5976575;28;20038;-45
2022/06/29 14:35:21;;;;;;;0.52;0.30;;;24.70;45.60;;;;;;5969258;28;20046;-47
2022/06/29 14:38:24;;;;;;;0.95;0.47;;;24.60;45.60;;;;;;5952136;28;20043;-45
2022/06/29 14:41:26;;;;;;;0.68;0.20;;;24.60;46.20;;;;;;5971801;28;20046;-44
2022/06/29 14:44:28;;;;;;;0.45;0.35;;;24.70;45.50;;;;;;5955779;28;20084;-43
2022/06/29 14:47:29;;;;;;;2.03;0.45;;;24.70;45.40;;;;;;5966765;28;20097;-44
2022/06/29 14:50:31;;;;;;;0.77;0.20;;;24.60;45.40;;;;;;5983500;28;20168;-45
2022/06/29 14:53:33;;;;;;;1.00;0.50;;;24.70;45.20;;;;;;5989735;28;20088;-47
2022/06/29 14:56:35;;;;;;;1.98;0.50;;;24.70;45.00;;;;;;5988716;28;20269;-43
2022/06/29 14:59:57;;;;;;;2.00;0.57;;;24.70;45.00;;;;;;5983175;28;21132;-42
2022/06/29 15:02:59;;;;;;;1.13;0.50;;;24.70;44.80;;;;;;5941644;28;20181;-52
2022/06/29 15:06:01;;;;;;;1.25;0.40;;;24.70;44.60;;;;;;5962654;28;20046;-43
2022/06/29 15:09:03;;;;;;;0.98;0.25;;;24.60;44.80;;;;;;5972294;28;20163;-43
2022/06/29 15:12:06;;;;;;;0.82;0.30;;;24.70;44.10;;;;;;5976779;28;20086;-45
2022/06/29 15:15:09;;;;;;;1.13;0.35;;;24.70;44.10;;;;;;5991135;28;20055;-43
2022/06/29 15:18:10;;;;;;;1.70;0.60;;;24.60;43.70;;;;;;5980370;28;20053;-45
2022/06/29 15:21:12;;;;;;;0.60;0.30;;;24.70;43.70;;;;;;5997480;28;20050;-45
2022/06/29 15:24:24;;;;;;;0.30;0.20;;;24.70;43.70;;;;;;5980357;28;21094;-45
2022/06/29 15:27:26;;;;;;;0.25;0.20;;;24.70;43.50;;;;;;6014060;28;20050;-43
2022/06/29 15:30:28;;;;;;;0.85;0.15;;;24.70;43.50;;;;;;6011007;28;20161;-44
2022/06/29 15:40:00;;;;;;;1.10;0.20;;;24.80;43.40;;;;;;6005931;28;20194;-46
2022/06/29 15:43:02;;;;;;;1.00;0.20;;;24.70;43.30;;;;;;6023249;28;20046;-43
2022/06/29 15:46:04;;;;;;;1.08;0.28;;;24.80;43.50;;;;;;6032401;28;20257;-43
2022/06/29 15:49:05;;;;;;;0.47;0.20;;;24.70;43.50;;;;;;6027216;28;20042;-43
2022/06/29 15:52:07;;;;;;;0.22;0.15;;;24.70;43.60;;;;;;6037353;28;20030;-43
2022/06/29 15:55:46;;;;;;;0.50;0.20;;;24.70;43.70;;;;;;6028951;28;20046;-43
2022/06/29 15:59:44;;;;;;;0.45;0.20;;;24.70;43.80;;;;;;6037038;28;21401;-52
2022/06/29 16:03:42;;;;;;;0.28;0.10;;;24.70;44.00;;;;;;6035378;28;20046;-47
2022/06/29 16:07:40;;;;;;;0.25;0.00;;;24.70;43.90;;;;;;6043778;28;21656;-47
2022/06/29 16:15:50;;;;;;;0.40;0.10;;;24.60;44.10;;;;;;6065615;28;20062;-44
2022/06/29 16:19:47;;;;;;;0.50;0.20;;;24.70;43.80;;;;;;6033316;28;20050;-46
2022/06/29 16:23:47;;;;;;;0.40;0.20;;;24.60;43.70;;;;;;6057811;28;20038;-45
2022/06/29 16:27:45;;;;;;;0.20;0.00;;;24.60;43.60;;;;;;6061049;28;20050;-45
2022/06/29 16:31:42;;;;;;;0.15;0.03;;;24.70;43.60;;;;;;6067931;28;20046;-43
2022/06/29 16:35:02;;;;;;;0.22;0.10;;;24.60;43.60;;;;;;6070866;28;20050;-45
2022/06/29 16:38:30;;;;;;;0.68;0.22;;;24.70;43.80;;;;;;6089681;28;20043;-44
2022/06/29 16:41:32;;;;;;;0.20;0.10;;;24.60;43.80;;;;;;6062644;28;20039;-43
2022/06/29 16:59:40;;;;;;;0.30;0.10;;;24.60;43.30;;;;;;6110580;28;20930;-44
2022/06/29 17:02:41;;;;;;;0.20;0.10;;;24.50;43.20;;;;;;6108981;28;20046;-45